KFRR

Front Royal-Warren County Airport

Front Royal, Virginia, USA
METAR KFRR 151530Z AUTO 09006KT 1 1/4SM SCT004 BKN015 OVC020 05/05 A3008 RMK AO1 P0004
Observed Flight Rules
Dec-15 @ 15:30 UTC (34 minutes ago) Instrument Flight Rules
Wind Visibility Clouds
90° at 6 knots 1 1/4 miles
  • Scattered at 400' AGL
  • Broken at 1,500' AGL
  • Overcast at 2,000' AGL
Temperatures Readings Precipitation
Current 5°C / 41°F
Dewpoint 5°C / 41°F
Humidity 100%
Altimeter 30.08" Hg
Pressure 1019 hPa
Elevation 216
Current Rain 0.04
METAR KFRR 151530Z AUTO 09006KT 1 1/4SM SCT004 BKN015 OVC020 05/05 A3008 RMK AO1 P0004
Observed Flight Rules
Dec-15 @ 15:30 UTC
(34 minutes ago)
IFR
Wind Visibility
90° at 6 knots 1 1/4 miles
Clouds
  • Scattered at 400' AGL
  • Broken at 1,500' AGL
  • Overcast at 2,000' AGL
Temperature Dewpoint
5°C / 41°F 5°C / 41°F
Humidity Altimeter Pressure
100% 30.08" Hg 1019 hPa
Current Rain
0.04